createdAt,value
2019-03-18T00:01:13.209Z,2.54
2019-03-18T00:06:22.073Z,2.67
2019-03-18T00:11:29.469Z,2.65
2019-03-18T00:16:38.318Z,2.77
2019-03-18T00:21:47.184Z,2.91
2019-03-18T00:26:56.085Z,3.08
2019-03-18T00:32:04.936Z,2.51
2019-03-18T00:37:13.801Z,2.62
2019-03-18T00:42:22.666Z,2.32
2019-03-18T00:47:31.745Z,2.01
2019-03-18T00:52:40.590Z,2.01
2019-03-18T00:57:49.490Z,1.94
2019-03-18T01:02:58.473Z,1.65
2019-03-18T01:08:07.357Z,1.54
2019-03-18T01:13:16.231Z,1.67
2019-03-18T01:18:25.186Z,1.52
2019-03-18T01:23:34.082Z,1.35
2019-03-18T01:28:42.970Z,1.41
2019-03-18T01:33:51.842Z,1.28
2019-03-18T01:39:00.670Z,1.42
2019-03-18T01:44:09.562Z,1.39
2019-03-18T01:49:18.420Z,1.36
2019-03-18T01:59:34.298Z,1.47
2019-03-18T02:04:43.192Z,1.66
2019-03-18T02:09:52.073Z,1.88
2019-03-18T02:14:59.448Z,2.14
2019-03-18T02:20:08.283Z,2.14
2019-03-18T02:25:17.120Z,2.15
2019-03-18T02:30:25.987Z,1.97
2019-03-18T02:35:34.883Z,2.64
2019-03-18T02:40:43.749Z,3.15
2019-03-18T02:46:09.005Z,2.85
2019-03-18T02:51:01.059Z,3.05
2019-03-18T02:56:09.957Z,3.04
2019-03-18T03:01:18.775Z,3.12
2019-03-18T03:06:27.959Z,3.36
2019-03-18T03:11:36.810Z,3.47
2019-03-18T03:16:45.717Z,3.41
2019-03-18T03:21:54.586Z,4.11
2019-03-18T03:27:03.436Z,4.57
2019-03-18T03:32:12.339Z,3.67
2019-03-18T03:37:21.188Z,3.53
2019-03-18T03:42:30.127Z,3.59
2019-03-18T03:47:38.978Z,3.74
2019-03-18T03:52:47.872Z,3.84
2019-03-18T03:57:56.739Z,3.69
2019-03-18T04:03:05.655Z,4.30
2019-03-18T04:08:14.516Z,4.68
2019-03-18T04:13:23.358Z,4.68
2019-03-18T04:18:32.627Z,4.82
2019-03-18T04:23:41.486Z,4.48
2019-03-18T04:28:50.332Z,4.91
2019-03-18T04:33:59.163Z,4.85
2019-03-18T04:39:08.010Z,5.00
2019-03-18T04:44:16.864Z,4.32
2019-03-18T04:49:25.695Z,4.29
2019-03-18T04:54:34.523Z,3.93
2019-03-18T04:59:43.409Z,3.54
2019-03-18T05:04:52.347Z,3.42
2019-03-18T05:10:01.603Z,2.87
2019-03-18T05:15:10.443Z,2.79
2019-03-18T05:20:19.290Z,2.91
2019-03-18T05:25:28.526Z,3.37
2019-03-18T05:30:37.377Z,4.02
2019-03-18T05:35:46.310Z,4.54
2019-03-18T05:40:55.184Z,4.87
2019-03-18T05:46:04.059Z,4.38
2019-03-18T05:51:13.914Z,3.67
2019-03-18T05:56:22.776Z,3.86
2019-03-18T06:01:33.855Z,3.97
2019-03-18T06:06:32.763Z,4.95
2019-03-18T06:11:41.563Z,4.57
2019-03-18T06:16:50.391Z,4.09
2019-03-18T06:21:59.281Z,4.18
2019-03-18T06:27:08.168Z,4.92
2019-03-18T06:32:17.075Z,4.21
2019-03-18T06:37:25.964Z,4.78
2019-03-18T06:42:34.868Z,5.03
2019-03-18T06:47:43.808Z,4.74
2019-03-18T06:52:52.737Z,4.96
2019-03-18T06:58:01.576Z,5.10
2019-03-18T07:03:10.448Z,4.50
2019-03-18T07:08:19.337Z,4.62
2019-03-18T07:13:28.210Z,4.46
2019-03-18T07:18:37.066Z,4.46
2019-03-18T07:23:44.497Z,4.64
2019-03-18T07:28:53.395Z,4.56
2019-03-18T07:34:02.328Z,4.07
2019-03-18T07:39:13.552Z,3.00
2019-03-18T07:44:12.948Z,3.06
2019-03-18T07:49:20.972Z,2.92
2019-03-18T07:54:33.086Z,2.38
2019-03-18T07:59:38.137Z,3.43
2019-03-18T08:04:47.005Z,2.75
2019-03-18T08:09:55.862Z,2.76
2019-03-18T08:15:04.777Z,3.92
2019-03-18T08:20:13.662Z,3.79
2019-03-18T08:25:22.547Z,2.19
2019-03-18T08:30:31.524Z,4.57
2019-03-18T08:35:40.450Z,2.74
2019-03-18T08:45:57.063Z,2.66
2019-03-18T08:51:05.950Z,2.81
2019-03-18T08:56:14.793Z,2.46
2019-03-18T09:01:23.735Z,2.56
2019-03-18T09:06:32.787Z,3.86
2019-03-18T09:11:41.777Z,3.04
2019-03-18T09:16:50.634Z,2.83
2019-03-18T09:21:59.523Z,2.53
2019-03-18T09:27:08.404Z,2.58
2019-03-18T09:32:17.289Z,1.78
2019-03-18T09:37:26.139Z,1.72
2019-03-18T09:42:35.024Z,1.58
2019-03-18T09:47:43.881Z,1.62
2019-03-18T09:52:53.747Z,1.14
2019-03-18T09:58:02.847Z,1.15
2019-03-18T10:03:11.724Z,1.09
2019-03-18T10:08:20.659Z,1.06
2019-03-18T10:13:29.579Z,0.91
2019-03-18T10:18:38.458Z,1.04
2019-03-18T10:23:47.306Z,0.92
2019-03-18T10:28:56.212Z,0.85
2019-03-18T10:34:05.139Z,0.64
2019-03-18T10:39:13.962Z,0.98
2019-03-18T10:44:22.905Z,0.94
2019-03-18T10:49:31.846Z,0.82
2019-03-18T10:54:40.777Z,1.21
2019-03-18T10:59:49.642Z,1.00
2019-03-18T11:04:58.583Z,1.27
2019-03-18T11:10:07.451Z,1.10
2019-03-18T11:15:16.330Z,1.06
2019-03-18T11:20:25.264Z,0.96
2019-03-18T11:25:34.094Z,0.96
2019-03-18T11:30:42.940Z,0.83
2019-03-18T11:35:51.791Z,0.95
2019-03-18T11:41:00.847Z,1.00
2019-03-18T11:46:09.718Z,0.99
2019-03-18T11:51:18.604Z,0.95
2019-03-18T11:56:27.467Z,0.76
2019-03-18T12:01:37.670Z,0.78
2019-03-18T12:06:36.494Z,0.72
2019-03-18T12:11:45.372Z,1.06
2019-03-18T12:16:54.270Z,0.85
2019-03-18T12:22:03.174Z,1.33
2019-03-18T12:27:12.062Z,1.11
2019-03-18T12:32:20.939Z,1.23
2019-03-18T12:37:29.850Z,1.27
2019-03-18T12:42:38.816Z,1.15
2019-03-18T12:47:48.135Z,1.25
2019-03-18T12:52:57.027Z,1.29
2019-03-18T12:58:05.899Z,1.59
2019-03-18T13:03:14.738Z,1.09
2019-03-18T13:08:23.610Z,1.48
2019-03-18T13:13:32.475Z,1.20
2019-03-18T13:18:41.347Z,1.32
2019-03-18T13:23:50.183Z,1.19
2019-03-18T13:28:59.040Z,1.43
2019-03-18T13:34:07.958Z,1.02
2019-03-18T13:39:16.879Z,1.21
2019-03-18T13:44:25.786Z,1.32
2019-03-18T13:49:36.437Z,1.10
2019-03-18T13:54:35.066Z,1.30
2019-03-18T13:59:43.915Z,1.27
2019-03-18T14:04:52.852Z,1.24
2019-03-18T14:10:01.734Z,1.12
2019-03-18T14:15:10.591Z,1.33
2019-03-18T14:20:19.464Z,1.95
2019-03-18T14:25:28.341Z,1.22
2019-03-18T14:30:37.193Z,1.60
2019-03-18T14:35:46.055Z,1.78
2019-03-18T14:40:54.886Z,1.46
2019-03-18T14:46:03.732Z,1.36
2019-03-18T14:51:12.577Z,1.67
2019-03-18T14:56:21.458Z,1.86
2019-03-18T15:01:30.517Z,1.36
2019-03-18T15:06:39.303Z,1.24
2019-03-18T15:11:48.152Z,1.15
2019-03-18T15:16:56.968Z,1.63
2019-03-18T15:22:05.800Z,1.27
2019-03-18T15:27:14.690Z,1.19
2019-03-18T15:32:23.591Z,1.26
2019-03-18T15:37:32.896Z,1.11
2019-03-18T15:42:41.783Z,1.04
2019-03-18T15:47:50.671Z,1.03
2019-03-18T15:52:59.480Z,0.89
2019-03-18T15:58:08.323Z,1.15
2019-03-18T16:03:17.298Z,1.18
2019-03-18T16:08:26.163Z,0.97
2019-03-18T16:13:35.115Z,1.06
2019-03-18T16:18:44.007Z,1.39
2019-03-18T16:23:52.914Z,0.99
2019-03-18T16:29:01.989Z,1.06
2019-03-18T16:34:10.904Z,1.25
2019-03-18T16:39:19.803Z,1.18
2019-03-18T16:44:28.757Z,1.50
2019-03-18T16:49:37.675Z,1.20
2019-03-18T16:54:47.063Z,1.38
2019-03-18T16:59:55.962Z,1.27
2019-03-18T17:05:04.899Z,1.48
2019-03-18T17:10:13.749Z,1.17
2019-03-18T17:15:22.743Z,1.67
2019-03-18T17:20:31.631Z,1.51
2019-03-18T17:25:40.471Z,1.88
2019-03-18T17:30:53.308Z,1.56
2019-03-18T17:35:53.839Z,1.92
2019-03-18T17:40:53.512Z,2.18
2019-03-18T17:46:02.559Z,1.69
2019-03-18T17:51:17.361Z,2.03
2019-03-18T17:56:16.210Z,2.40
2019-03-18T18:01:25.206Z,5.88
2019-03-18T18:06:34.310Z,8.38
2019-03-18T18:11:43.401Z,12.94
2019-03-18T18:16:52.387Z,8.48
2019-03-18T18:21:59.836Z,7.11
2019-03-18T18:27:08.910Z,11.53
2019-03-18T18:32:17.875Z,5.22
2019-03-18T18:37:26.847Z,7.45
2019-03-18T18:42:40.214Z,3.45
2019-03-18T18:47:39.178Z,2.97
2019-03-18T18:52:48.214Z,2.96
2019-03-18T18:57:57.216Z,3.03
2019-03-18T19:03:06.230Z,2.75
2019-03-18T19:08:15.266Z,2.44
2019-03-18T19:13:24.198Z,2.31
2019-03-18T19:18:37.648Z,3.75
2019-03-18T19:23:41.687Z,4.02
2019-03-18T19:28:50.655Z,5.56
2019-03-18T19:33:59.530Z,3.09
2019-03-18T19:39:08.531Z,3.32
2019-03-18T19:44:17.412Z,3.58
2019-03-18T19:49:26.343Z,2.92
2019-03-18T19:54:35.211Z,2.78
2019-03-18T19:59:44.153Z,2.96
2019-03-18T20:04:52.959Z,3.08
2019-03-18T20:10:02.094Z,3.27
2019-03-18T20:15:10.986Z,2.80
2019-03-18T20:20:19.930Z,2.88
2019-03-18T20:25:28.771Z,2.84
2019-03-18T20:30:37.923Z,5.07
2019-03-18T20:35:48.799Z,3.20
2019-03-18T20:40:47.898Z,3.61
2019-03-18T20:45:56.858Z,4.01
2019-03-18T20:51:06.072Z,3.28
2019-03-18T20:56:15.093Z,3.06
2019-03-18T21:01:25.094Z,3.26
2019-03-18T21:06:23.900Z,2.84
2019-03-18T21:11:33.728Z,4.89
2019-03-18T21:16:42.587Z,5.24
2019-03-18T21:21:51.532Z,5.10
2019-03-18T21:27:00.465Z,3.49
2019-03-18T21:32:09.423Z,3.40
2019-03-18T21:37:18.350Z,3.02
2019-03-18T21:42:26.694Z,4.12
2019-03-18T21:47:35.850Z,11.79
2019-03-18T21:52:44.999Z,10.74
2019-03-18T21:57:53.921Z,8.66
2019-03-18T22:03:03.091Z,18.85
2019-03-18T22:08:11.974Z,17.64
2019-03-18T22:13:21.433Z,13.02
2019-03-18T22:18:29.909Z,8.01
2019-03-18T22:23:39.014Z,7.38
2019-03-18T22:28:47.857Z,9.14
2019-03-18T22:33:56.986Z,4.93
2019-03-18T22:39:05.818Z,4.22
2019-03-18T22:44:14.802Z,3.15
2019-03-18T22:49:23.638Z,3.88
2019-03-18T22:54:33.153Z,4.74
2019-03-18T22:59:42.247Z,4.84
2019-03-18T23:04:51.185Z,4.11
2019-03-18T23:10:00.047Z,5.26
2019-03-18T23:15:09.141Z,3.89
2019-03-18T23:20:18.000Z,4.41
2019-03-18T23:25:26.968Z,3.95
2019-03-18T23:30:35.826Z,3.76
2019-03-18T23:35:44.786Z,3.90
2019-03-18T23:40:53.724Z,3.97
2019-03-18T23:46:02.711Z,5.55
2019-03-18T23:51:11.578Z,4.16
2019-03-18T23:56:20.580Z,3.60
